createdAt,value
2023-03-30T00:00:06.489Z,77.92
2023-03-30T00:05:06.516Z,77.17
2023-03-30T00:10:06.359Z,77.37
2023-03-30T00:15:06.283Z,78.09
2023-03-30T00:20:06.292Z,78.43
2023-03-30T00:25:06.150Z,78.50
2023-03-30T00:30:06.083Z,78.39
2023-03-30T00:35:06.036Z,78.36
2023-03-30T00:40:05.946Z,77.64
2023-03-30T00:45:05.908Z,78.25
2023-03-30T00:50:05.809Z,78.16
2023-03-30T00:55:05.756Z,78.36
2023-03-30T01:00:05.693Z,78.77
2023-03-30T01:05:05.638Z,78.87
2023-03-30T01:10:05.569Z,78.46
2023-03-30T01:15:05.492Z,78.22
2023-03-30T01:20:05.431Z,77.71
2023-03-30T01:25:05.366Z,77.50
2023-03-30T01:30:05.293Z,77.81
2023-03-30T01:35:05.249Z,78.02
2023-03-30T01:40:05.209Z,78.83
2023-03-30T01:45:05.139Z,78.74
2023-03-30T01:50:05.046Z,78.83
2023-03-30T01:55:05.000Z,79.04
2023-03-30T02:00:04.899Z,79.14
2023-03-30T02:05:04.856Z,78.94
2023-03-30T02:10:04.773Z,79.86
2023-03-30T02:15:04.729Z,79.35
2023-03-30T02:20:04.653Z,79.66
2023-03-30T02:25:04.597Z,79.96
2023-03-30T02:30:04.527Z,80.58
2023-03-30T02:35:04.460Z,81.02
2023-03-30T02:40:04.385Z,81.23
2023-03-30T02:45:04.334Z,81.13
2023-03-30T02:50:04.258Z,81.20
2023-03-30T02:55:04.191Z,80.68
2023-03-30T03:00:04.119Z,80.78
2023-03-30T03:05:04.157Z,80.47
2023-03-30T03:10:03.995Z,80.13
2023-03-30T03:15:03.943Z,79.38
2023-03-30T03:20:03.878Z,79.17
2023-03-30T03:25:03.811Z,78.97
2023-03-30T03:30:03.758Z,78.86
2023-03-30T03:35:03.674Z,78.45
2023-03-30T03:40:03.611Z,78.25
2023-03-30T03:45:03.549Z,78.15
2023-03-30T03:50:03.504Z,78.05
2023-03-30T03:55:03.432Z,78.15
2023-03-30T04:00:03.354Z,78.39
2023-03-30T04:05:03.343Z,79.24
2023-03-30T04:10:03.220Z,80.07
2023-03-30T04:15:03.166Z,79.45
2023-03-30T04:20:03.109Z,83.18
2023-03-30T04:25:03.139Z,83.22
2023-03-30T04:30:02.960Z,83.01
2023-03-30T04:35:02.901Z,81.85
2023-03-30T04:40:02.818Z,82.77
2023-03-30T04:45:02.784Z,81.57
2023-03-30T04:50:02.695Z,81.48
2023-03-30T04:55:02.632Z,81.88
2023-03-30T05:00:02.568Z,82.29
2023-03-30T05:05:02.509Z,82.50
2023-03-30T05:10:02.507Z,81.57
2023-03-30T05:15:02.356Z,81.78
2023-03-30T05:20:02.343Z,81.85
2023-03-30T05:25:02.245Z,81.43
2023-03-30T05:30:02.168Z,80.82
2023-03-30T05:35:02.103Z,81.85
2023-03-30T05:40:02.026Z,80.47
2023-03-30T05:45:01.968Z,81.09
2023-03-30T05:50:01.927Z,80.58
2023-03-30T05:55:01.838Z,79.89
2023-03-30T06:00:01.784Z,79.24
2023-03-30T06:05:01.832Z,77.01
2023-03-30T06:10:01.651Z,75.75
2023-03-30T06:15:01.572Z,75.41
2023-03-30T06:20:01.504Z,75.51
2023-03-30T06:25:01.429Z,76.09
2023-03-30T06:30:01.385Z,74.08
2023-03-30T06:35:01.296Z,71.70
2023-03-30T06:40:01.232Z,70.14
2023-03-30T06:45:01.166Z,69.73
2023-03-30T06:50:01.094Z,70.92
2023-03-30T06:55:01.481Z,71.73
2023-03-30T07:00:00.981Z,72.34
2023-03-30T07:05:00.900Z,71.67
2023-03-30T07:10:00.821Z,72.48
2023-03-30T07:15:00.791Z,73.10
2023-03-30T07:20:00.698Z,73.30
2023-03-30T07:25:00.641Z,72.31
2023-03-30T07:30:13.956Z,67.81
2023-03-30T07:35:01.500Z,63.90
2023-03-30T07:40:00.524Z,61.53
2023-03-30T07:45:00.363Z,57.98
2023-03-30T07:50:00.296Z,57.81
2023-03-30T07:55:00.240Z,60.09
2023-03-30T08:00:00.156Z,61.36
2023-03-30T08:05:00.464Z,61.56
2023-03-30T08:10:00.033Z,61.69
2023-03-30T08:14:59.981Z,61.33
2023-03-30T08:19:59.897Z,61.83
2023-03-30T08:24:59.824Z,61.17
2023-03-30T08:29:59.748Z,61.10
2023-03-30T08:34:59.706Z,61.43
2023-03-30T08:39:59.611Z,62.16
2023-03-30T08:44:59.560Z,62.60
2023-03-30T08:49:59.493Z,61.76
2023-03-30T08:54:59.422Z,63.71
2023-03-30T08:59:59.361Z,63.54
2023-03-30T09:04:59.287Z,64.72
2023-03-30T09:09:59.223Z,65.66
2023-03-30T09:14:59.180Z,67.27
2023-03-30T09:19:59.093Z,68.01
2023-03-30T09:24:59.025Z,69.47
2023-03-30T09:29:58.945Z,70.62
2023-03-30T09:34:58.922Z,71.94
2023-03-30T09:39:58.825Z,73.50
2023-03-30T09:44:58.767Z,75.02
2023-03-30T09:49:58.754Z,76.79
2023-03-30T09:54:58.655Z,78.96
2023-03-30T09:59:58.634Z,79.81
2023-03-30T10:04:58.635Z,81.82
2023-03-30T10:09:58.465Z,80.91
2023-03-30T10:14:58.374Z,81.21
2023-03-30T10:20:11.065Z,83.35
2023-03-30T10:24:59.221Z,83.70
2023-03-30T10:29:58.158Z,83.49
2023-03-30T10:34:58.119Z,84.61
2023-03-30T10:39:58.011Z,84.78
2023-03-30T10:44:57.971Z,83.68
2023-03-30T10:49:57.930Z,83.98
2023-03-30T10:54:57.822Z,83.64
2023-03-30T10:59:59.947Z,79.50
2023-03-30T11:04:57.698Z,80.24
2023-03-30T11:09:57.704Z,78.78
2023-03-30T11:14:57.566Z,78.53
2023-03-30T11:19:57.533Z,78.98
2023-03-30T11:24:57.416Z,78.30
2023-03-30T11:29:57.335Z,79.28
2023-03-30T11:34:57.285Z,77.32
2023-03-30T11:39:57.219Z,76.57
2023-03-30T11:44:57.156Z,76.40
2023-03-30T11:49:57.082Z,73.49
2023-03-30T11:55:03.643Z,71.13
2023-03-30T11:59:57.939Z,67.53
2023-03-30T12:04:56.959Z,63.70
2023-03-30T12:09:56.824Z,62.97
2023-03-30T12:14:56.773Z,63.04
2023-03-30T12:19:57.100Z,63.82
2023-03-30T12:24:56.598Z,62.78
2023-03-30T12:30:03.069Z,61.57
2023-03-30T12:34:57.533Z,61.98
2023-03-30T12:39:56.399Z,60.44
2023-03-30T12:44:56.340Z,61.04
2023-03-30T12:49:56.262Z,58.29
2023-03-30T12:54:56.208Z,58.07
2023-03-30T12:59:56.139Z,58.64
2023-03-30T13:04:56.063Z,56.78
2023-03-30T13:09:55.996Z,57.24
2023-03-30T13:14:55.933Z,57.34
2023-03-30T13:19:55.856Z,57.01
2023-03-30T13:24:55.824Z,55.68
2023-03-30T13:29:55.728Z,55.83
2023-03-30T13:35:06.279Z,56.96
2023-03-30T13:39:56.629Z,57.50
2023-03-30T13:44:57.260Z,57.12
2023-03-30T13:49:55.460Z,56.99
2023-03-30T13:54:55.447Z,57.87
2023-03-30T13:59:55.463Z,58.77
2023-03-30T14:04:55.296Z,58.17
2023-03-30T14:09:55.208Z,57.34
2023-03-30T14:14:55.141Z,57.01
2023-03-30T14:19:55.091Z,56.63
2023-03-30T14:24:55.010Z,56.76
2023-03-30T14:29:54.933Z,56.69
2023-03-30T14:34:54.865Z,57.52
2023-03-30T14:39:54.784Z,57.92
2023-03-30T14:44:54.733Z,57.62
2023-03-30T14:49:54.680Z,57.22
2023-03-30T14:55:06.613Z,57.22
2023-03-30T14:59:55.528Z,57.79
2023-03-30T15:04:54.458Z,57.97
2023-03-30T15:09:54.390Z,57.37
2023-03-30T15:14:54.330Z,57.29
2023-03-30T15:19:54.280Z,58.35
2023-03-30T15:24:54.195Z,58.94
2023-03-30T15:29:54.133Z,59.37
2023-03-30T15:34:54.062Z,59.70
2023-03-30T15:39:53.994Z,61.52
2023-03-30T15:44:53.920Z,62.76
2023-03-30T15:49:53.866Z,64.64
2023-03-30T15:54:53.794Z,65.16
2023-03-30T15:59:53.729Z,68.46
2023-03-30T16:04:53.688Z,74.21
2023-03-30T16:09:53.635Z,78.76
2023-03-30T16:14:53.526Z,80.83
2023-03-30T16:19:53.496Z,81.54
2023-03-30T16:24:53.402Z,82.29
2023-03-30T16:29:53.341Z,83.21
2023-03-30T16:34:53.302Z,83.11
2023-03-30T16:39:53.212Z,83.92
2023-03-30T16:44:53.125Z,83.62
2023-03-30T16:49:53.092Z,83.76
2023-03-30T16:54:52.984Z,84.37
2023-03-30T16:59:52.942Z,85.33
2023-03-30T17:04:52.884Z,85.33
2023-03-30T17:09:52.792Z,85.33
2023-03-30T17:14:52.731Z,84.96
2023-03-30T17:19:52.669Z,84.45
2023-03-30T17:24:52.600Z,83.33
2023-03-30T17:29:52.556Z,81.04
2023-03-30T17:34:52.450Z,78.91
2023-03-30T17:39:52.403Z,78.70
2023-03-30T17:44:52.318Z,78.12
2023-03-30T17:49:52.266Z,78.02
2023-03-30T17:54:52.192Z,78.33
2023-03-30T17:59:52.120Z,78.47
2023-03-30T18:04:52.057Z,79.08
2023-03-30T18:09:52.015Z,78.61
2023-03-30T18:14:51.927Z,79.73
2023-03-30T18:19:51.860Z,79.73
2023-03-30T18:24:51.793Z,80.48
2023-03-30T18:29:51.743Z,81.03
2023-03-30T18:34:51.656Z,81.44
2023-03-30T18:39:51.587Z,81.95
2023-03-30T18:44:51.544Z,81.95
2023-03-30T18:49:51.447Z,82.40
2023-03-30T18:54:51.379Z,83.25
2023-03-30T18:59:51.316Z,83.22
2023-03-30T19:04:51.253Z,83.36
2023-03-30T19:09:51.184Z,83.97
2023-03-30T19:14:51.181Z,84.17
2023-03-30T19:19:51.054Z,84.07
2023-03-30T19:24:50.988Z,84.58
2023-03-30T19:29:50.987Z,83.97
2023-03-30T19:34:50.855Z,84.58
2023-03-30T19:39:50.794Z,84.48
2023-03-30T19:44:50.705Z,83.83
2023-03-30T19:49:50.643Z,83.07
2023-03-30T19:54:50.579Z,83.48
2023-03-30T19:59:50.507Z,82.63
2023-03-30T20:04:50.437Z,82.87
2023-03-30T20:09:50.377Z,82.73
2023-03-30T20:14:50.422Z,82.36
2023-03-30T20:19:50.254Z,83.52
2023-03-30T20:24:50.171Z,84.07
2023-03-30T20:29:50.222Z,84.38
2023-03-30T20:34:50.033Z,83.87
2023-03-30T20:39:49.973Z,83.73
2023-03-30T20:44:49.976Z,83.42
2023-03-30T20:49:49.854Z,83.62
2023-03-30T20:54:49.790Z,83.11
2023-03-30T20:59:49.728Z,82.36
2023-03-30T21:04:49.749Z,82.77
2023-03-30T21:09:49.570Z,82.70
2023-03-30T21:14:49.508Z,83.56
2023-03-30T21:19:49.432Z,84.83
2023-03-30T21:24:49.374Z,85.28
2023-03-30T21:29:49.301Z,86.10
2023-03-30T21:34:49.226Z,85.99
2023-03-30T21:39:49.169Z,85.99
2023-03-30T21:44:49.087Z,86.34
2023-03-30T21:49:49.027Z,86.55
2023-03-30T21:54:48.942Z,87.26
2023-03-30T21:59:48.878Z,86.30
2023-03-30T22:04:48.812Z,85.79
2023-03-30T22:09:48.744Z,85.55
2023-03-30T22:14:48.668Z,85.24
2023-03-30T22:19:48.597Z,84.07
2023-03-30T22:24:48.526Z,83.87
2023-03-30T22:29:48.461Z,83.62
2023-03-30T22:34:48.407Z,83.01
2023-03-30T22:39:48.341Z,82.56
2023-03-30T22:44:48.274Z,82.56
2023-03-30T22:49:48.193Z,82.46
2023-03-30T22:54:48.139Z,82.56
2023-03-30T22:59:48.071Z,83.28
2023-03-30T23:04:47.993Z,83.28
2023-03-30T23:09:47.928Z,82.77
2023-03-30T23:14:47.858Z,82.67
2023-03-30T23:19:47.793Z,82.32
2023-03-30T23:24:47.750Z,81.26
2023-03-30T23:29:47.662Z,81.16
2023-03-30T23:34:47.593Z,80.96
2023-03-30T23:39:47.532Z,80.30
2023-03-30T23:44:47.455Z,79.66
2023-03-30T23:49:47.437Z,79.35
2023-03-30T23:54:47.327Z,79.66
2023-03-30T23:59:47.284Z,79.75
